sensor_id;sensor_type;location;lat;lon;timestamp;pressure;altitude;pressure_sealevel;temperature;humidity
49943;BME280;36011;53.362;58.948;2023-05-02T00:01:29;97632.63;;;6.96;46.19
49943;BME280;36011;53.362;58.948;2023-05-02T00:04:33;97624.13;;;6.91;46.25
49943;BME280;36011;53.362;58.948;2023-05-02T00:07:37;97640.00;;;6.86;46.30
49943;BME280;36011;53.362;58.948;2023-05-02T00:10:38;97637.53;;;6.82;46.15
49943;BME280;36011;53.362;58.948;2023-05-02T00:13:39;97629.03;;;6.77;46.82
49943;BME280;36011;53.362;58.948;2023-05-02T00:16:41;97637.88;;;6.72;46.62
49943;BME280;36011;53.362;58.948;2023-05-02T00:19:44;97634.47;;;6.70;46.76
49943;BME280;36011;53.362;58.948;2023-05-02T00:22:48;97637.16;;;6.69;46.82
49943;BME280;36011;53.362;58.948;2023-05-02T00:25:49;97638.13;;;6.66;47.11
49943;BME280;36011;53.362;58.948;2023-05-02T00:28:53;97627.78;;;6.63;46.98
49943;BME280;36011;53.362;58.948;2023-05-02T00:31:54;97633.00;;;6.63;47.25
49943;BME280;36011;53.362;58.948;2023-05-02T00:34:56;97636.44;;;6.65;47.29
49943;BME280;36011;53.362;58.948;2023-05-02T00:37:58;97633.84;;;6.64;48.34
49943;BME280;36011;53.362;58.948;2023-05-02T00:41:00;97650.28;;;6.67;47.28
49943;BME280;36011;53.362;58.948;2023-05-02T00:44:03;97635.34;;;6.71;46.80
49943;BME280;36011;53.362;58.948;2023-05-02T00:47:07;97637.88;;;6.72;47.12
49943;BME280;36011;53.362;58.948;2023-05-02T00:50:10;97638.72;;;6.73;47.29
49943;BME280;36011;53.362;58.948;2023-05-02T00:53:14;97637.88;;;6.72;46.92
49943;BME280;36011;53.362;58.948;2023-05-02T00:56:15;97640.38;;;6.75;47.38
49943;BME280;36011;53.362;58.948;2023-05-02T00:59:16;97632.41;;;6.79;47.17
49943;BME280;36011;53.362;58.948;2023-05-02T01:05:25;97634.63;;;6.89;47.20
49943;BME280;36011;53.362;58.948;2023-05-02T01:08:34;97636.22;;;6.93;47.09
49943;BME280;36011;53.362;58.948;2023-05-02T01:14:59;97627.97;;;7.04;46.55
49943;BME280;36011;53.362;58.948;2023-05-02T01:18:08;97619.78;;;7.13;47.79
49943;BME280;36011;53.362;58.948;2023-05-02T01:21:16;97628.09;;;7.23;46.54
49943;BME280;36011;53.362;58.948;2023-05-02T01:24:27;97623.47;;;7.30;47.33
49943;BME280;36011;53.362;58.948;2023-05-02T01:27:42;97624.69;;;7.43;46.63
49943;BME280;36011;53.362;58.948;2023-05-02T01:30:47;97634.91;;;7.49;46.72
49943;BME280;36011;53.362;58.948;2023-05-02T01:33:51;97632.84;;;7.57;46.53
49943;BME280;36011;53.362;58.948;2023-05-02T01:36:53;97640.41;;;7.65;46.55
49943;BME280;36011;53.362;58.948;2023-05-02T01:39:59;97643.47;;;7.75;46.27
49943;BME280;36011;53.362;58.948;2023-05-02T01:43:02;97646.72;;;7.81;46.48
49943;BME280;36011;53.362;58.948;2023-05-02T01:46:08;97649.00;;;7.89;45.84
49943;BME280;36011;53.362;58.948;2023-05-02T01:49:09;97652.16;;;7.97;46.02
49943;BME280;36011;53.362;58.948;2023-05-02T01:52:13;97656.88;;;8.09;45.85
49943;BME280;36011;53.362;58.948;2023-05-02T01:55:15;97656.50;;;8.19;45.94
49943;BME280;36011;53.362;58.948;2023-05-02T01:58:22;97664.88;;;8.27;45.26
49943;BME280;36011;53.362;58.948;2023-05-02T02:01:26;97663.63;;;8.36;45.72
49943;BME280;36011;53.362;58.948;2023-05-02T02:04:35;97664.25;;;8.42;45.54
49943;BME280;36011;53.362;58.948;2023-05-02T02:07:37;97664.50;;;8.57;45.67
49943;BME280;36011;53.362;58.948;2023-05-02T02:10:42;97673.66;;;8.67;45.32
49943;BME280;36011;53.362;58.948;2023-05-02T02:13:44;97666.16;;;8.78;44.91
49943;BME280;36011;53.362;58.948;2023-05-02T02:16:48;97671.56;;;8.94;45.38
49943;BME280;36011;53.362;58.948;2023-05-02T02:19:55;97669.16;;;9.08;45.19
49943;BME280;36011;53.362;58.948;2023-05-02T02:22:57;97675.50;;;9.23;44.98
49943;BME280;36011;53.362;58.948;2023-05-02T02:26:03;97680.94;;;9.37;44.63
49943;BME280;36011;53.362;58.948;2023-05-02T02:29:07;97681.06;;;9.53;44.51
49943;BME280;36011;53.362;58.948;2023-05-02T02:32:11;97680.25;;;9.70;43.94
49943;BME280;36011;53.362;58.948;2023-05-02T02:35:13;97675.16;;;9.84;43.59
49943;BME280;36011;53.362;58.948;2023-05-02T02:41:30;97673.75;;;10.14;43.02
49943;BME280;36011;53.362;58.948;2023-05-02T02:51:24;97673.19;;;10.59;41.83
49943;BME280;36011;53.362;58.948;2023-05-02T02:58:06;97679.78;;;10.84;41.21
49943;BME280;36011;53.362;58.948;2023-05-02T03:01:16;97677.34;;;10.96;40.75
49943;BME280;36011;53.362;58.948;2023-05-02T03:04:22;97672.44;;;11.06;40.77
49943;BME280;36011;53.362;58.948;2023-05-02T03:07:28;97683.69;;;11.26;40.37
49943;BME280;36011;53.362;58.948;2023-05-02T03:10:29;97675.53;;;11.46;39.98
49943;BME280;36011;53.362;58.948;2023-05-02T03:13:33;97673.06;;;11.59;39.87
49943;BME280;36011;53.362;58.948;2023-05-02T03:16:38;97674.00;;;11.89;38.93
49943;BME280;36011;53.362;58.948;2023-05-02T03:19:42;97672.88;;;12.24;37.73
49943;BME280;36011;53.362;58.948;2023-05-02T03:22:48;97669.72;;;12.47;37.59
49943;BME280;36011;53.362;58.948;2023-05-02T03:25:51;97671.84;;;12.85;37.14
49943;BME280;36011;53.362;58.948;2023-05-02T03:28:53;97682.44;;;13.28;36.38
49943;BME280;36011;53.362;58.948;2023-05-02T03:31:59;97686.34;;;13.50;36.03
49943;BME280;36011;53.362;58.948;2023-05-02T03:35:00;97685.38;;;13.65;35.79
49943;BME280;36011;53.362;58.948;2023-05-02T03:38:02;97692.19;;;13.55;35.52
49943;BME280;36011;53.362;58.948;2023-05-02T03:41:08;97688.16;;;13.35;36.07
49943;BME280;36011;53.362;58.948;2023-05-02T03:44:13;97692.22;;;13.40;34.79
49943;BME280;36011;53.362;58.948;2023-05-02T03:47:17;97687.31;;;13.06;35.56
49943;BME280;36011;53.362;58.948;2023-05-02T03:50:20;97688.81;;;12.95;35.70
49943;BME280;36011;53.362;58.948;2023-05-02T03:53:28;97697.97;;;12.90;35.67
49943;BME280;36011;53.362;58.948;2023-05-02T03:56:34;97685.22;;;12.82;35.66
49943;BME280;36011;53.362;58.948;2023-05-02T04:03:23;97688.75;;;12.97;35.16
49943;BME280;36011;53.362;58.948;2023-05-02T04:06:33;97700.16;;;12.97;35.15
49943;BME280;36011;53.362;58.948;2023-05-02T04:09:34;97687.31;;;12.91;35.17
49943;BME280;36011;53.362;58.948;2023-05-02T04:12:36;97687.69;;;12.99;35.31
49943;BME280;36011;53.362;58.948;2023-05-02T04:15:50;97694.41;;;13.34;34.50
49943;BME280;36011;53.362;58.948;2023-05-02T04:18:58;97691.19;;;13.29;34.58
49943;BME280;36011;53.362;58.948;2023-05-02T04:22:01;97690.34;;;13.42;34.45
49943;BME280;36011;53.362;58.948;2023-05-02T04:25:06;97691.22;;;13.56;34.35
49943;BME280;36011;53.362;58.948;2023-05-02T04:28:07;97692.50;;;13.77;34.09
49943;BME280;36011;53.362;58.948;2023-05-02T04:31:08;97689.66;;;13.80;34.04
49943;BME280;36011;53.362;58.948;2023-05-02T04:34:10;97683.56;;;13.92;34.03
49943;BME280;36011;53.362;58.948;2023-05-02T04:37:16;97689.59;;;14.22;33.82
49943;BME280;36011;53.362;58.948;2023-05-02T04:40:19;97702.19;;;14.58;33.06
49943;BME280;36011;53.362;58.948;2023-05-02T04:43:21;97700.94;;;14.89;32.96
49943;BME280;36011;53.362;58.948;2023-05-02T04:46:24;97698.75;;;16.30;31.57
49943;BME280;36011;53.362;58.948;2023-05-02T04:49:30;97698.31;;;20.52;26.97
49943;BME280;36011;53.362;58.948;2023-05-02T04:52:34;97707.28;;;25.02;22.53
49943;BME280;36011;53.362;58.948;2023-05-02T04:55:38;97716.75;;;28.50;21.87
49943;BME280;36011;53.362;58.948;2023-05-02T04:58:43;97725.28;;;31.24;20.88
49943;BME280;36011;53.362;58.948;2023-05-02T05:01:47;97728.41;;;34.08;19.06
49943;BME280;36011;53.362;58.948;2023-05-02T05:04:51;97731.19;;;36.56;18.02
49943;BME280;36011;53.362;58.948;2023-05-02T05:07:54;97726.13;;;38.71;16.97
49943;BME280;36011;53.362;58.948;2023-05-02T05:10:58;97735.34;;;40.62;16.26
49943;BME280;36011;53.362;58.948;2023-05-02T05:13:59;97735.63;;;42.04;15.48
49943;BME280;36011;53.362;58.948;2023-05-02T05:17:05;97729.97;;;42.39;14.49
49943;BME280;36011;53.362;58.948;2023-05-02T05:20:10;97728.03;;;42.90;14.23
49943;BME280;36011;53.362;58.948;2023-05-02T05:23:14;97722.75;;;43.27;12.28
49943;BME280;36011;53.362;58.948;2023-05-02T05:26:16;97730.78;;;44.54;12.72
49943;BME280;36011;53.362;58.948;2023-05-02T05:29:22;97737.81;;;46.29;10.77
49943;BME280;36011;53.362;58.948;2023-05-02T05:32:26;97733.06;;;47.47;11.24
49943;BME280;36011;53.362;58.948;2023-05-02T05:35:29;97725.63;;;46.39;10.83
49943;BME280;36011;53.362;58.948;2023-05-02T05:38:34;97730.28;;;44.90;10.10
49943;BME280;36011;53.362;58.948;2023-05-02T05:41:38;97710.84;;;41.73;13.53
49943;BME280;36011;53.362;58.948;2023-05-02T05:44:46;97714.38;;;38.81;14.95
49943;BME280;36011;53.362;58.948;2023-05-02T05:47:53;97711.09;;;36.10;16.21
49943;BME280;36011;53.362;58.948;2023-05-02T05:50:55;97703.81;;;34.26;17.27
49943;BME280;36011;53.362;58.948;2023-05-02T05:53:58;97700.56;;;33.19;17.01
49943;BME280;36011;53.362;58.948;2023-05-02T05:57:01;97696.63;;;32.83;16.35
49943;BME280;36011;53.362;58.948;2023-05-02T06:00:03;97700.06;;;32.72;16.82
49943;BME280;36011;53.362;58.948;2023-05-02T06:03:07;97705.19;;;33.18;15.86
49943;BME280;36011;53.362;58.948;2023-05-02T06:06:13;97702.09;;;35.27;14.39
49943;BME280;36011;53.362;58.948;2023-05-02T06:09:16;97708.47;;;36.73;13.17
49943;BME280;36011;53.362;58.948;2023-05-02T06:12:20;97717.16;;;38.54;12.46
49943;BME280;36011;53.362;58.948;2023-05-02T06:15:28;97713.00;;;39.43;11.70
49943;BME280;36011;53.362;58.948;2023-05-02T06:18:31;97712.28;;;40.10;11.72
49943;BME280;36011;53.362;58.948;2023-05-02T06:21:34;97708.88;;;42.49;10.35
49943;BME280;36011;53.362;58.948;2023-05-02T06:24:38;97719.63;;;44.17;9.81
49943;BME280;36011;53.362;58.948;2023-05-02T06:27:43;97718.34;;;43.56;9.22
49943;BME280;36011;53.362;58.948;2023-05-02T06:30:46;97713.00;;;41.97;8.63
49943;BME280;36011;53.362;58.948;2023-05-02T06:33:56;97703.16;;;41.03;9.43
49943;BME280;36011;53.362;58.948;2023-05-02T06:37:00;97706.63;;;38.46;10.52
49943;BME280;36011;53.362;58.948;2023-05-02T06:40:01;97700.94;;;37.14;11.64
49943;BME280;36011;53.362;58.948;2023-05-02T06:43:08;97694.44;;;36.86;10.83
49943;BME280;36011;53.362;58.948;2023-05-02T06:46:11;97685.19;;;35.54;12.22
49943;BME280;36011;53.362;58.948;2023-05-02T06:49:14;97685.91;;;35.38;12.38
49943;BME280;36011;53.362;58.948;2023-05-02T06:52:18;97690.03;;;37.52;11.64
49943;BME280;36011;53.362;58.948;2023-05-02T06:55:22;97691.81;;;38.25;10.74
49943;BME280;36011;53.362;58.948;2023-05-02T06:58:23;97693.69;;;39.38;10.59
49943;BME280;36011;53.362;58.948;2023-05-02T07:01:24;97693.75;;;40.89;9.99
49943;BME280;36011;53.362;58.948;2023-05-02T07:04:28;97699.53;;;43.23;9.22
49943;BME280;36011;53.362;58.948;2023-05-02T07:07:29;97698.97;;;43.50;8.73
49943;BME280;36011;53.362;58.948;2023-05-02T07:10:35;97710.13;;;43.99;8.31
49943;BME280;36011;53.362;58.948;2023-05-02T07:13:39;97705.78;;;44.35;7.64
49943;BME280;36011;53.362;58.948;2023-05-02T07:16:46;97688.72;;;43.22;8.31
49943;BME280;36011;53.362;58.948;2023-05-02T07:19:50;97713.22;;;43.97;7.40
49943;BME280;36011;53.362;58.948;2023-05-02T07:22:55;97688.25;;;40.99;8.57
49943;BME280;36011;53.362;58.948;2023-05-02T07:25:56;97684.97;;;38.54;10.13
49943;BME280;36011;53.362;58.948;2023-05-02T07:29:00;97686.59;;;41.39;8.62
49943;BME280;36011;53.362;58.948;2023-05-02T07:32:01;97691.84;;;43.15;8.04
49943;BME280;36011;53.362;58.948;2023-05-02T07:35:02;97695.66;;;44.45;7.55
49943;BME280;36011;53.362;58.948;2023-05-02T07:38:04;97690.91;;;43.25;8.03
49943;BME280;36011;53.362;58.948;2023-05-02T07:41:04;97689.88;;;41.62;9.02
49943;BME280;36011;53.362;58.948;2023-05-02T07:44:06;97686.41;;;42.06;8.05
49943;BME280;36011;53.362;58.948;2023-05-02T07:47:07;97684.75;;;40.15;9.23
49943;BME280;36011;53.362;58.948;2023-05-02T07:50:09;97681.53;;;40.39;9.12
49943;BME280;36011;53.362;58.948;2023-05-02T07:53:13;97683.25;;;41.01;8.95
49943;BME280;36011;53.362;58.948;2023-05-02T07:56:14;97689.34;;;40.78;8.91
49943;BME280;36011;53.362;58.948;2023-05-02T07:59:16;97677.81;;;40.08;9.30
49943;BME280;36011;53.362;58.948;2023-05-02T08:02:17;97666.69;;;41.22;8.81
49943;BME280;36011;53.362;58.948;2023-05-02T08:05:24;97677.91;;;43.55;7.72
49943;BME280;36011;53.362;58.948;2023-05-02T08:08:31;97673.19;;;43.79;7.70
49943;BME280;36011;53.362;58.948;2023-05-02T08:11:32;97680.53;;;44.37;7.48
49943;BME280;36011;53.362;58.948;2023-05-02T08:14:36;97676.38;;;45.57;6.98
49943;BME280;36011;53.362;58.948;2023-05-02T08:17:41;97678.09;;;45.66;6.92
49943;BME280;36011;53.362;58.948;2023-05-02T08:20:45;97685.56;;;44.54;7.28
49943;BME280;36011;53.362;58.948;2023-05-02T08:23:48;97669.94;;;44.39;7.42
49943;BME280;36011;53.362;58.948;2023-05-02T08:26:49;97671.41;;;45.07;6.85
49943;BME280;36011;53.362;58.948;2023-05-02T08:29:54;97674.13;;;44.55;7.32
49943;BME280;36011;53.362;58.948;2023-05-02T08:32:58;97663.97;;;43.84;7.76
49943;BME280;36011;53.362;58.948;2023-05-02T08:36:09;97668.31;;;43.42;7.56
49943;BME280;36011;53.362;58.948;2023-05-02T08:39:15;97668.50;;;42.53;8.09
49943;BME280;36011;53.362;58.948;2023-05-02T08:42:20;97670.44;;;41.92;8.58
49943;BME280;36011;53.362;58.948;2023-05-02T08:45:23;97675.09;;;42.57;8.53
49943;BME280;36011;53.362;58.948;2023-05-02T08:48:28;97662.28;;;42.66;8.12
49943;BME280;36011;53.362;58.948;2023-05-02T08:51:32;97659.09;;;41.89;8.28
49943;BME280;36011;53.362;58.948;2023-05-02T08:54:37;97653.13;;;42.26;8.47
49943;BME280;36011;53.362;58.948;2023-05-02T08:57:43;97656.66;;;41.82;8.75
49943;BME280;36011;53.362;58.948;2023-05-02T09:00:45;97647.91;;;41.55;8.79
49943;BME280;36011;53.362;58.948;2023-05-02T09:03:49;97657.84;;;42.70;8.50
49943;BME280;36011;53.362;58.948;2023-05-02T09:06:54;97658.03;;;43.18;8.31
49943;BME280;36011;53.362;58.948;2023-05-02T09:09:57;97649.41;;;43.20;7.79
49943;BME280;36011;53.362;58.948;2023-05-02T09:13:18;97650.59;;;42.79;7.92
49943;BME280;36011;53.362;58.948;2023-05-02T09:16:21;97646.53;;;41.52;8.76
49943;BME280;36011;53.362;58.948;2023-05-02T09:19:27;97636.84;;;42.20;8.34
49943;BME280;36011;53.362;58.948;2023-05-02T09:22:30;97636.25;;;42.33;8.16
49943;BME280;36011;53.362;58.948;2023-05-02T09:25:35;97639.41;;;42.11;8.31
49943;BME280;36011;53.362;58.948;2023-05-02T09:28:41;97640.03;;;41.87;8.84
49943;BME280;36011;53.362;58.948;2023-05-02T09:31:43;97638.88;;;42.04;8.74
49943;BME280;36011;53.362;58.948;2023-05-02T09:35:04;97637.44;;;42.61;8.69
49943;BME280;36011;53.362;58.948;2023-05-02T09:38:17;97634.13;;;42.59;8.44
49943;BME280;36011;53.362;58.948;2023-05-02T09:41:19;97627.97;;;41.63;8.76
49943;BME280;36011;53.362;58.948;2023-05-02T09:44:25;97623.06;;;41.29;8.94
49943;BME280;36011;53.362;58.948;2023-05-02T09:47:29;97619.19;;;41.40;8.88
49943;BME280;36011;53.362;58.948;2023-05-02T09:50:39;97612.06;;;40.68;9.25
49943;BME280;36011;53.362;58.948;2023-05-02T09:53:44;97613.75;;;40.64;9.31
49943;BME280;36011;53.362;58.948;2023-05-02T09:59:55;97617.59;;;40.88;9.18
49943;BME280;36011;53.362;58.948;2023-05-02T10:02:57;97619.81;;;41.06;9.09
49943;BME280;36011;53.362;58.948;2023-05-02T10:06:03;97608.22;;;40.89;9.14
49943;BME280;36011;53.362;58.948;2023-05-02T10:09:10;97613.72;;;40.79;9.33
49943;BME280;36011;53.362;58.948;2023-05-02T10:12:16;97604.63;;;39.64;9.84
49943;BME280;36011;53.362;58.948;2023-05-02T10:15:18;97598.66;;;39.88;9.78
49943;BME280;36011;53.362;58.948;2023-05-02T10:18:32;97606.38;;;39.91;9.72
49943;BME280;36011;53.362;58.948;2023-05-02T10:21:35;97590.69;;;38.91;10.10
49943;BME280;36011;53.362;58.948;2023-05-02T10:24:38;97600.09;;;38.63;10.62
49943;BME280;36011;53.362;58.948;2023-05-02T10:27:44;97590.09;;;37.97;10.76
49943;BME280;36011;53.362;58.948;2023-05-02T10:30:47;97590.53;;;37.45;10.86
49943;BME280;36011;53.362;58.948;2023-05-02T10:33:51;97584.34;;;36.99;11.60
49943;BME280;36011;53.362;58.948;2023-05-02T10:36:56;97588.78;;;37.39;11.35
49943;BME280;36011;53.362;58.948;2023-05-02T10:40:04;97590.94;;;38.30;10.73
49943;BME280;36011;53.362;58.948;2023-05-02T10:43:06;97591.44;;;37.73;10.68
49943;BME280;36011;53.362;58.948;2023-05-02T10:49:31;97584.75;;;36.40;11.63
49943;BME280;36011;53.362;58.948;2023-05-02T10:52:37;97586.97;;;36.72;11.55
49943;BME280;36011;53.362;58.948;2023-05-02T10:55:38;97581.81;;;36.76;11.97
49943;BME280;36011;53.362;58.948;2023-05-02T10:58:40;97591.06;;;37.03;11.74
49943;BME280;36011;53.362;58.948;2023-05-02T11:01:46;97586.72;;;36.11;12.11
49943;BME280;36011;53.362;58.948;2023-05-02T11:21:23;97568.69;;;34.29;13.33
49943;BME280;36011;53.362;58.948;2023-05-02T11:27:40;97552.94;;;33.52;13.79
49943;BME280;36011;53.362;58.948;2023-05-02T11:30:46;97553.75;;;33.16;14.39
49943;BME280;36011;53.362;58.948;2023-05-02T11:33:57;97565.75;;;32.90;14.55
49943;BME280;36011;53.362;58.948;2023-05-02T11:37:09;97567.91;;;32.81;14.31
49943;BME280;36011;53.362;58.948;2023-05-02T11:40:11;97539.88;;;31.53;15.15
49943;BME280;36011;53.362;58.948;2023-05-02T11:43:13;97548.31;;;31.32;16.01
49943;BME280;36011;53.362;58.948;2023-05-02T11:46:17;97532.78;;;30.87;15.80
49943;BME280;36011;53.362;58.948;2023-05-02T11:49:20;97541.75;;;30.68;16.37
49943;BME280;36011;53.362;58.948;2023-05-02T11:52:22;97555.94;;;31.03;16.17
49943;BME280;36011;53.362;58.948;2023-05-02T11:55:28;97551.38;;;30.37;16.67
49943;BME280;36011;53.362;58.948;2023-05-02T11:58:31;97550.50;;;29.90;16.98
49943;BME280;36011;53.362;58.948;2023-05-02T12:01:37;97539.50;;;29.50;17.33
49943;BME280;36011;53.362;58.948;2023-05-02T12:04:46;97534.16;;;29.70;17.29
49943;BME280;36011;53.362;58.948;2023-05-02T12:07:50;97538.19;;;29.33;17.52
49943;BME280;36011;53.362;58.948;2023-05-02T12:10:53;97536.69;;;29.24;17.87
49943;BME280;36011;53.362;58.948;2023-05-02T12:13:55;97532.56;;;29.35;17.41
49943;BME280;36011;53.362;58.948;2023-05-02T12:16:57;97536.69;;;29.85;17.27
49943;BME280;36011;53.362;58.948;2023-05-02T12:20:05;97541.53;;;30.10;16.98
49943;BME280;36011;53.362;58.948;2023-05-02T12:23:07;97537.16;;;30.02;17.12
49943;BME280;36011;53.362;58.948;2023-05-02T12:26:19;97537.13;;;29.89;17.40
49943;BME280;36011;53.362;58.948;2023-05-02T12:29:23;97543.00;;;29.92;17.17
49943;BME280;36011;53.362;58.948;2023-05-02T12:32:36;97542.16;;;30.12;17.16
49943;BME280;36011;53.362;58.948;2023-05-02T12:35:40;97533.81;;;30.07;16.94
49943;BME280;36011;53.362;58.948;2023-05-02T12:38:48;97548.59;;;29.84;17.14
49943;BME280;36011;53.362;58.948;2023-05-02T12:41:53;97552.09;;;29.65;17.44
49943;BME280;36011;53.362;58.948;2023-05-02T12:44:54;97538.34;;;29.80;17.31
49943;BME280;36011;53.362;58.948;2023-05-02T12:47:58;97543.97;;;29.23;17.71
49943;BME280;36011;53.362;58.948;2023-05-02T12:51:02;97535.41;;;28.85;18.14
49943;BME280;36011;53.362;58.948;2023-05-02T12:54:04;97531.41;;;28.46;18.43
49943;BME280;36011;53.362;58.948;2023-05-02T12:57:15;97531.66;;;28.30;18.79
49943;BME280;36011;53.362;58.948;2023-05-02T13:00:24;97527.56;;;27.91;18.89
49943;BME280;36011;53.362;58.948;2023-05-02T13:03:25;97530.47;;;27.53;19.28
49943;BME280;36011;53.362;58.948;2023-05-02T13:06:32;97523.81;;;27.04;19.93
49943;BME280;36011;53.362;58.948;2023-05-02T13:09:37;97521.03;;;26.68;19.91
49943;BME280;36011;53.362;58.948;2023-05-02T13:12:43;97510.03;;;26.55;19.97
49943;BME280;36011;53.362;58.948;2023-05-02T13:15:44;97512.84;;;26.76;20.54
49943;BME280;36011;53.362;58.948;2023-05-02T13:18:48;97511.44;;;26.13;20.70
49943;BME280;36011;53.362;58.948;2023-05-02T13:21:49;97502.63;;;25.73;21.09
49943;BME280;36011;53.362;58.948;2023-05-02T13:24:53;97510.50;;;26.06;21.10
49943;BME280;36011;53.362;58.948;2023-05-02T13:27:56;97501.25;;;25.77;21.03
49943;BME280;36011;53.362;58.948;2023-05-02T13:30:57;97511.09;;;25.39;21.27
49943;BME280;36011;53.362;58.948;2023-05-02T13:33:59;97510.94;;;25.40;21.44
49943;BME280;36011;53.362;58.948;2023-05-02T13:37:04;97507.97;;;25.27;21.27
49943;BME280;36011;53.362;58.948;2023-05-02T13:40:06;97511.50;;;25.27;21.22
49943;BME280;36011;53.362;58.948;2023-05-02T13:43:10;97500.97;;;25.09;21.69
49943;BME280;36011;53.362;58.948;2023-05-02T13:46:13;97499.53;;;24.91;21.66
49943;BME280;36011;53.362;58.948;2023-05-02T13:49:16;97505.97;;;25.21;21.64
49943;BME280;36011;53.362;58.948;2023-05-02T13:52:22;97508.13;;;24.86;21.53
49943;BME280;36011;53.362;58.948;2023-05-02T13:55:24;97501.06;;;24.85;21.50
49943;BME280;36011;53.362;58.948;2023-05-02T13:58:25;97504.78;;;24.84;21.64
49943;BME280;36011;53.362;58.948;2023-05-02T14:01:29;97516.94;;;24.63;22.19
49943;BME280;36011;53.362;58.948;2023-05-02T14:04:33;97522.00;;;24.26;22.17
49943;BME280;36011;53.362;58.948;2023-05-02T14:07:34;97523.38;;;24.38;22.19
49943;BME280;36011;53.362;58.948;2023-05-02T14:10:40;97524.06;;;24.24;22.07
49943;BME280;36011;53.362;58.948;2023-05-02T14:13:41;97528.75;;;23.97;22.62
49943;BME280;36011;53.362;58.948;2023-05-02T14:16:42;97528.75;;;23.81;22.85
49943;BME280;36011;53.362;58.948;2023-05-02T14:19:51;97524.66;;;23.60;22.89
49943;BME280;36011;53.362;58.948;2023-05-02T14:22:52;97529.38;;;23.50;23.16
49943;BME280;36011;53.362;58.948;2023-05-02T14:25:54;97508.59;;;23.09;23.46
49943;BME280;36011;53.362;58.948;2023-05-02T14:28:56;97534.25;;;23.04;23.45
49943;BME280;36011;53.362;58.948;2023-05-02T14:31:58;97533.47;;;22.85;23.66
49943;BME280;36011;53.362;58.948;2023-05-02T14:35:01;97537.13;;;22.76;23.77
49943;BME280;36011;53.362;58.948;2023-05-02T14:38:02;97533.75;;;22.74;23.80
49943;BME280;36011;53.362;58.948;2023-05-02T14:41:06;97532.38;;;22.70;23.92
49943;BME280;36011;53.362;58.948;2023-05-02T14:44:11;97538.75;;;22.43;23.88
49943;BME280;36011;53.362;58.948;2023-05-02T14:47:17;97535.81;;;22.28;24.16
49943;BME280;36011;53.362;58.948;2023-05-02T14:50:21;97532.56;;;22.42;24.07
49943;BME280;36011;53.362;58.948;2023-05-02T14:53:24;97546.38;;;22.30;24.36
49943;BME280;36011;53.362;58.948;2023-05-02T14:56:28;97545.41;;;21.95;24.53
49943;BME280;36011;53.362;58.948;2023-05-02T14:59:32;97544.34;;;22.06;24.74
49943;BME280;36011;53.362;58.948;2023-05-02T15:02:37;97555.44;;;21.75;24.93
49943;BME280;36011;53.362;58.948;2023-05-02T15:05:38;97558.97;;;21.58;25.02
49943;BME280;36011;53.362;58.948;2023-05-02T15:08:40;97564.22;;;21.22;25.10
49943;BME280;36011;53.362;58.948;2023-05-02T15:11:43;97561.75;;;21.11;25.26
49943;BME280;36011;53.362;58.948;2023-05-02T15:14:46;97562.03;;;21.07;25.38
49943;BME280;36011;53.362;58.948;2023-05-02T15:17:50;97560.50;;;20.68;25.67
49943;BME280;36011;53.362;58.948;2023-05-02T15:20:52;97573.19;;;20.66;25.86
49943;BME280;36011;53.362;58.948;2023-05-02T15:24:02;97569.38;;;20.68;25.82
49943;BME280;36011;53.362;58.948;2023-05-02T15:27:08;97571.22;;;20.48;26.13
49943;BME280;36011;53.362;58.948;2023-05-02T15:30:12;97586.84;;;20.43;26.25
49943;BME280;36011;53.362;58.948;2023-05-02T15:33:20;97580.56;;;20.15;26.36
49943;BME280;36011;53.362;58.948;2023-05-02T15:36:27;97595.75;;;20.34;26.19
49943;BME280;36011;53.362;58.948;2023-05-02T15:39:30;97590.72;;;20.02;26.36
49943;BME280;36011;53.362;58.948;2023-05-02T15:42:33;97599.13;;;19.78;26.40
49943;BME280;36011;53.362;58.948;2023-05-02T15:45:37;97607.50;;;19.63;26.70
49943;BME280;36011;53.362;58.948;2023-05-02T15:48:39;97606.06;;;19.49;26.80
49943;BME280;36011;53.362;58.948;2023-05-02T15:51:45;97612.78;;;19.34;27.15
49943;BME280;36011;53.362;58.948;2023-05-02T15:54:48;97628.75;;;19.24;27.09
49943;BME280;36011;53.362;58.948;2023-05-02T15:57:54;97632.06;;;19.07;27.25
49943;BME280;36011;53.362;58.948;2023-05-02T16:00:55;97633.25;;;18.93;27.46
49943;BME280;36011;53.362;58.948;2023-05-02T16:04:01;97637.56;;;18.84;27.66
49943;BME280;36011;53.362;58.948;2023-05-02T16:07:04;97643.28;;;18.59;27.56
49943;BME280;36011;53.362;58.948;2023-05-02T16:10:08;97649.53;;;18.69;27.67
49943;BME280;36011;53.362;58.948;2023-05-02T16:13:09;97654.53;;;18.62;27.95
49943;BME280;36011;53.362;58.948;2023-05-02T16:16:13;97658.38;;;18.49;27.90
49943;BME280;36011;53.362;58.948;2023-05-02T16:19:18;97661.38;;;18.55;28.06
49943;BME280;36011;53.362;58.948;2023-05-02T16:22:21;97660.59;;;18.44;27.68
49943;BME280;36011;53.362;58.948;2023-05-02T16:25:25;97658.50;;;18.26;27.67
49943;BME280;36011;53.362;58.948;2023-05-02T16:28:31;97670.84;;;17.95;28.01
49943;BME280;36011;53.362;58.948;2023-05-02T16:31:32;97675.22;;;18.17;27.96
49943;BME280;36011;53.362;58.948;2023-05-02T16:34:34;97671.19;;;18.02;28.00
49943;BME280;36011;53.362;58.948;2023-05-02T16:37:37;97665.44;;;17.63;28.06
49943;BME280;36011;53.362;58.948;2023-05-02T16:40:41;97668.63;;;17.45;28.25
49943;BME280;36011;53.362;58.948;2023-05-02T16:43:42;97676.34;;;17.60;27.95
49943;BME280;36011;53.362;58.948;2023-05-02T16:46:46;97676.72;;;17.66;27.67
49943;BME280;36011;53.362;58.948;2023-05-02T16:49:51;97687.72;;;17.50;27.55
49943;BME280;36011;53.362;58.948;2023-05-02T16:52:54;97682.25;;;17.52;27.44
49943;BME280;36011;53.362;58.948;2023-05-02T16:55:57;97690.06;;;17.33;27.40